createdAt,value
2022-08-17T00:00:00.555Z,20.86
2022-08-17T00:02:27.566Z,21.28
2022-08-17T00:04:55.789Z,21.28
2022-08-17T00:07:23.295Z,21.28
2022-08-17T00:09:50.473Z,21.02
2022-08-17T00:12:40.695Z,21.22
2022-08-17T00:15:06.096Z,21.04
2022-08-17T00:17:38.549Z,21.26
2022-08-17T00:20:06.268Z,20.73
2022-08-17T00:22:46.625Z,21.23
2022-08-17T00:25:17.822Z,21.41
2022-08-17T00:27:44.647Z,21.31
2022-08-17T00:30:12.853Z,21.37
2022-08-17T00:33:23.491Z,21.34
2022-08-17T00:35:33.009Z,21.31
2022-08-17T00:38:00.104Z,21.38
2022-08-17T00:40:27.096Z,21.16
2022-08-17T00:43:22.031Z,21.10
2022-08-17T00:45:49.462Z,21.09
2022-08-17T00:48:29.017Z,21.29
2022-08-17T00:51:00.278Z,21.34
2022-08-17T00:53:30.775Z,21.37
2022-08-17T00:56:01.986Z,21.42
2022-08-17T00:58:36.123Z,21.27
2022-08-17T01:01:05.902Z,21.00
2022-08-17T01:03:34.965Z,21.21
2022-08-17T01:06:04.670Z,21.01
2022-08-17T01:08:32.540Z,21.22
2022-08-17T01:11:02.396Z,20.89
2022-08-17T01:13:35.475Z,21.15
2022-08-17T01:16:20.739Z,21.01
2022-08-17T01:18:52.288Z,20.98
2022-08-17T01:21:44.231Z,20.94
2022-08-17T01:24:11.122Z,20.91
2022-08-17T01:26:39.593Z,20.67
2022-08-17T01:29:07.110Z,21.10
2022-08-17T01:31:42.822Z,21.14
2022-08-17T01:34:12.263Z,21.19
2022-08-17T01:36:42.089Z,20.87
2022-08-17T01:39:16.439Z,20.91
2022-08-17T01:41:46.563Z,20.77
2022-08-17T01:44:16.770Z,21.12
2022-08-17T01:46:43.722Z,20.93
2022-08-17T01:49:12.974Z,20.96
2022-08-17T01:51:40.070Z,20.84
2022-08-17T01:54:11.593Z,20.80
2022-08-17T01:56:41.760Z,20.75
2022-08-17T01:59:09.002Z,20.39
2022-08-17T02:01:37.216Z,20.51
2022-08-17T02:04:06.039Z,20.29
2022-08-17T02:06:53.787Z,20.62
2022-08-17T02:09:29.654Z,20.57
2022-08-17T02:11:59.390Z,20.58
2022-08-17T02:14:27.008Z,20.75
2022-08-17T02:16:54.446Z,20.78
2022-08-17T02:19:22.095Z,20.39
2022-08-17T02:21:52.278Z,20.66
2022-08-17T02:25:00.454Z,20.67
2022-08-17T02:27:15.191Z,20.57
2022-08-17T02:29:42.039Z,20.55
2022-08-17T02:32:25.461Z,20.50
2022-08-17T02:34:55.643Z,20.28
2022-08-17T02:37:22.500Z,20.21
2022-08-17T02:39:49.336Z,20.22
2022-08-17T02:42:16.191Z,20.17
2022-08-17T02:44:43.405Z,20.16
2022-08-17T02:47:11.320Z,19.98
2022-08-17T02:49:38.618Z,20.10
2022-08-17T02:52:07.727Z,20.03
2022-08-17T02:54:41.756Z,19.92
2022-08-17T02:57:10.401Z,19.87
2022-08-17T02:59:38.530Z,19.92
2022-08-17T03:02:07.333Z,19.63
2022-08-17T03:04:35.421Z,19.54
2022-08-17T03:07:03.819Z,19.75
2022-08-17T03:09:31.337Z,19.54
2022-08-17T03:12:11.328Z,19.82
2022-08-17T03:14:42.609Z,19.93
2022-08-17T03:17:11.173Z,19.48
2022-08-17T03:19:44.454Z,19.82
2022-08-17T03:22:35.922Z,19.96
2022-08-17T03:24:58.251Z,19.76
2022-08-17T03:27:25.115Z,20.03
2022-08-17T03:29:51.935Z,19.84
2022-08-17T03:32:20.828Z,20.10
2022-08-17T03:34:48.035Z,19.82
2022-08-17T03:37:15.227Z,20.07
2022-08-17T03:39:43.015Z,19.52
2022-08-17T03:42:31.605Z,19.96
2022-08-17T03:44:59.849Z,19.76
2022-08-17T03:47:45.052Z,19.80
2022-08-17T03:50:30.533Z,19.50
2022-08-17T03:53:16.009Z,19.48
2022-08-17T03:56:01.416Z,19.76
2022-08-17T03:58:28.391Z,19.41
2022-08-17T04:00:55.932Z,19.45
2022-08-17T04:03:22.860Z,19.74
2022-08-17T04:05:49.737Z,19.54
2022-08-17T04:08:16.522Z,19.45
2022-08-17T04:10:45.201Z,19.60
2022-08-17T04:13:12.942Z,19.64
2022-08-17T04:15:40.143Z,19.55
2022-08-17T04:18:07.715Z,19.57
2022-08-17T04:20:38.170Z,19.51
2022-08-17T04:23:11.878Z,19.52
2022-08-17T04:25:48.438Z,19.17
2022-08-17T04:28:16.646Z,18.90
2022-08-17T04:30:45.382Z,19.11
2022-08-17T04:33:18.270Z,19.16
2022-08-17T04:35:51.175Z,19.41
2022-08-17T04:38:21.633Z,18.62
2022-08-17T04:41:07.835Z,19.39
2022-08-17T04:43:37.030Z,19.08
2022-08-17T04:46:10.056Z,19.35
2022-08-17T04:48:43.040Z,19.22
2022-08-17T04:51:15.172Z,19.28
2022-08-17T04:53:54.438Z,19.31
2022-08-17T04:56:22.495Z,19.37
2022-08-17T04:58:51.089Z,19.28
2022-08-17T05:01:24.099Z,19.28
2022-08-17T05:03:56.789Z,19.30
2022-08-17T05:06:23.840Z,19.19
2022-08-17T05:08:50.817Z,19.39
2022-08-17T05:11:17.966Z,19.26
2022-08-17T05:13:44.944Z,19.28
2022-08-17T05:16:12.251Z,19.29
2022-08-17T05:18:39.347Z,19.30
2022-08-17T05:21:07.029Z,19.35
2022-08-17T05:23:42.109Z,18.91
2022-08-17T05:26:25.760Z,19.32
2022-08-17T05:29:00.574Z,19.29
2022-08-17T05:31:30.189Z,19.22
2022-08-17T05:33:57.465Z,19.07
2022-08-17T05:36:41.657Z,19.27
2022-08-17T05:39:17.001Z,19.02
2022-08-17T05:41:46.448Z,19.17
2022-08-17T05:44:13.321Z,19.21
2022-08-17T05:46:43.703Z,19.23
2022-08-17T05:49:23.674Z,19.10
2022-08-17T05:52:08.359Z,19.10
2022-08-17T05:54:47.439Z,19.16
2022-08-17T05:57:53.727Z,19.14
2022-08-17T06:00:36.873Z,19.21
2022-08-17T06:03:19.199Z,19.17
2022-08-17T06:06:13.979Z,19.26
2022-08-17T06:08:58.921Z,19.22
2022-08-17T06:11:35.853Z,19.26
2022-08-17T06:14:16.390Z,19.09
2022-08-17T06:16:47.658Z,19.16
2022-08-17T06:19:28.203Z,19.15
2022-08-17T06:21:55.418Z,19.20
2022-08-17T06:24:58.208Z,19.17
2022-08-17T06:27:53.566Z,19.10
2022-08-17T06:30:41.357Z,19.13
2022-08-17T06:33:24.126Z,19.23
2022-08-17T06:36:19.583Z,19.27
2022-08-17T06:39:00.001Z,18.78
2022-08-17T06:41:57.099Z,19.21
2022-08-17T06:44:47.540Z,19.18
2022-08-17T06:47:27.961Z,19.25
2022-08-17T06:50:08.528Z,19.25
2022-08-17T06:52:47.394Z,19.14
2022-08-17T06:55:21.511Z,19.19
2022-08-17T06:57:54.389Z,19.25
2022-08-17T07:00:26.971Z,19.02
2022-08-17T07:03:12.798Z,19.55
2022-08-17T07:06:08.629Z,19.56
2022-08-17T07:08:55.625Z,19.42
2022-08-17T07:11:37.628Z,19.83
2022-08-17T07:14:27.710Z,19.99
2022-08-17T07:16:57.074Z,19.82
2022-08-17T07:19:27.459Z,19.95
2022-08-17T07:21:57.668Z,20.33
2022-08-17T07:24:42.093Z,20.40
2022-08-17T07:27:18.435Z,20.47
2022-08-17T07:30:10.813Z,20.51
2022-08-17T07:32:58.880Z,20.58
2022-08-17T07:35:41.270Z,20.55
2022-08-17T07:38:25.664Z,20.82
2022-08-17T07:40:58.036Z,20.89
2022-08-17T07:43:29.622Z,20.96
2022-08-17T07:46:25.061Z,21.12
2022-08-17T07:48:55.923Z,20.89
2022-08-17T07:51:25.847Z,21.42
2022-08-17T07:54:04.803Z,21.61
2022-08-17T07:56:48.705Z,22.21
2022-08-17T07:59:23.195Z,22.71
2022-08-17T08:01:57.641Z,22.95
2022-08-17T08:04:59.204Z,22.92
2022-08-17T08:07:39.953Z,22.86
2022-08-17T08:10:25.327Z,22.74
2022-08-17T08:13:01.609Z,22.47
2022-08-17T08:15:40.109Z,22.65
2022-08-17T08:18:54.473Z,22.55
2022-08-17T08:21:36.778Z,22.59
2022-08-17T08:24:18.628Z,22.51
2022-08-17T08:27:07.326Z,22.55
2022-08-17T08:29:53.003Z,22.63
2022-08-17T08:32:37.920Z,22.83
2022-08-17T08:35:13.945Z,22.84
2022-08-17T08:37:48.481Z,22.85
2022-08-17T08:40:36.896Z,22.76
2022-08-17T08:43:23.971Z,22.91
2022-08-17T08:45:53.420Z,23.09
2022-08-17T08:48:56.329Z,23.08
2022-08-17T08:51:52.186Z,23.08
2022-08-17T08:54:46.465Z,23.30
2022-08-17T08:57:25.410Z,23.64
2022-08-17T08:59:58.289Z,23.89
2022-08-17T09:02:41.446Z,23.82
2022-08-17T09:05:30.222Z,24.23
2022-08-17T09:08:16.084Z,24.89
2022-08-17T09:11:13.813Z,25.16
2022-08-17T09:13:54.706Z,25.13
2022-08-17T09:16:30.887Z,24.82
2022-08-17T09:19:08.824Z,24.81
2022-08-17T09:21:55.115Z,24.34
2022-08-17T09:24:41.080Z,24.53
2022-08-17T09:27:15.808Z,24.87
2022-08-17T09:29:48.969Z,25.02
2022-08-17T09:32:28.708Z,24.75
2022-08-17T09:35:01.860Z,24.71
2022-08-17T09:37:50.716Z,24.72
2022-08-17T09:40:24.675Z,24.56
2022-08-17T09:43:30.749Z,24.48
2022-08-17T09:46:11.832Z,24.28
2022-08-17T09:48:55.507Z,24.48
2022-08-17T09:51:30.749Z,24.49
2022-08-17T09:54:14.795Z,24.66
2022-08-17T09:57:05.932Z,24.63
2022-08-17T09:59:53.494Z,24.64
2022-08-17T10:02:41.956Z,24.53
2022-08-17T10:05:18.184Z,24.17
2022-08-17T10:08:00.224Z,24.54
2022-08-17T10:10:43.803Z,24.62
2022-08-17T10:13:33.232Z,24.81
2022-08-17T10:16:45.636Z,25.91
2022-08-17T10:19:39.617Z,26.36
2022-08-17T10:22:51.165Z,26.18
2022-08-17T10:25:54.080Z,26.19
2022-08-17T10:28:29.576Z,26.33
2022-08-17T10:34:18.989Z,26.74
2022-08-17T10:36:52.726Z,27.29
2022-08-17T10:39:52.113Z,27.68
2022-08-17T10:42:33.388Z,28.45
2022-08-17T10:45:32.364Z,28.71
2022-08-17T10:48:06.349Z,28.95
2022-08-17T10:50:51.886Z,29.00
2022-08-17T10:53:33.952Z,29.39
2022-08-17T10:56:17.591Z,29.23
2022-08-17T10:58:54.615Z,29.49
2022-08-17T11:01:33.989Z,29.40
2022-08-17T11:04:09.476Z,29.61
2022-08-17T11:06:39.032Z,29.73
2022-08-17T11:09:24.625Z,29.51
2022-08-17T11:11:51.423Z,29.66
2022-08-17T11:14:36.498Z,29.57
2022-08-17T11:17:24.852Z,29.25
2022-08-17T11:20:38.316Z,29.30
2022-08-17T11:23:35.629Z,28.98
2022-08-17T11:26:08.796Z,28.72
2022-08-17T11:28:48.844Z,28.40
2022-08-17T11:31:40.346Z,29.23
2022-08-17T11:34:18.995Z,29.54
2022-08-17T11:37:10.282Z,29.67
2022-08-17T11:40:24.620Z,29.96
2022-08-17T11:43:13.511Z,30.51
2022-08-17T11:46:22.007Z,30.65
2022-08-17T11:49:39.984Z,30.95
2022-08-17T11:52:32.697Z,30.91
2022-08-17T11:55:17.595Z,31.45
2022-08-17T11:58:14.548Z,31.72
2022-08-17T12:00:50.212Z,31.95
2022-08-17T12:03:54.289Z,32.03
2022-08-17T12:06:30.415Z,32.45
2022-08-17T12:09:12.862Z,33.35
2022-08-17T12:12:12.538Z,34.12
2022-08-17T12:15:11.371Z,34.90
2022-08-17T12:17:42.673Z,35.14
2022-08-17T12:20:15.723Z,35.79
2022-08-17T12:22:59.439Z,36.05
2022-08-17T12:25:49.663Z,36.06
2022-08-17T12:28:25.614Z,36.81
2022-08-17T12:30:53.239Z,36.95
2022-08-17T12:33:27.918Z,36.75
2022-08-17T12:36:07.611Z,36.99
2022-08-17T12:38:37.817Z,37.37
2022-08-17T12:41:36.989Z,37.61
2022-08-17T12:44:06.714Z,37.73
2022-08-17T12:46:55.610Z,37.72
2022-08-17T12:49:30.158Z,37.85
2022-08-17T12:52:19.879Z,38.28
2022-08-17T12:55:00.613Z,38.63
2022-08-17T12:57:49.214Z,38.91
2022-08-17T13:00:22.273Z,39.64
2022-08-17T13:02:53.558Z,39.09
2022-08-17T13:05:38.308Z,39.13
2022-08-17T13:08:13.608Z,39.42
2022-08-17T13:10:40.709Z,36.81
2022-08-17T13:13:41.408Z,33.68
2022-08-17T13:16:17.853Z,32.07
2022-08-17T13:18:46.980Z,30.93
2022-08-17T13:21:19.608Z,29.96
2022-08-17T13:24:05.113Z,29.09
2022-08-17T13:26:32.142Z,28.56
2022-08-17T13:29:00.274Z,28.05
2022-08-17T13:31:30.272Z,27.70
2022-08-17T13:34:29.895Z,27.08
2022-08-17T13:37:29.828Z,26.79
2022-08-17T13:40:19.595Z,26.56
2022-08-17T13:42:54.076Z,26.23
2022-08-17T13:45:36.103Z,25.69
2022-08-17T13:48:06.496Z,26.05
2022-08-17T13:50:33.899Z,25.75
2022-08-17T13:53:00.916Z,25.79
2022-08-17T13:55:30.084Z,25.43
2022-08-17T13:58:03.653Z,25.66
2022-08-17T14:00:36.631Z,25.06
2022-08-17T14:03:05.370Z,25.63
2022-08-17T14:05:33.926Z,25.51
2022-08-17T14:08:06.538Z,24.88
2022-08-17T14:10:36.471Z,25.44
2022-08-17T14:13:03.608Z,25.29
2022-08-17T14:15:54.615Z,25.27
2022-08-17T14:18:19.098Z,25.25
2022-08-17T14:21:08.558Z,24.62
2022-08-17T14:23:36.721Z,25.06
2022-08-17T14:26:03.721Z,25.15
2022-08-17T14:28:30.739Z,24.84
2022-08-17T14:31:00.501Z,24.66
2022-08-17T14:33:28.544Z,24.82
2022-08-17T14:35:56.183Z,25.05
2022-08-17T14:38:23.521Z,24.84
2022-08-17T14:40:50.465Z,24.42
2022-08-17T14:43:18.195Z,24.95
2022-08-17T14:45:45.056Z,24.96
2022-08-17T14:48:12.030Z,24.68
2022-08-17T14:50:42.041Z,24.89
2022-08-17T14:53:12.249Z,24.53
2022-08-17T14:55:40.609Z,24.78
2022-08-17T14:58:09.163Z,24.73
2022-08-17T15:00:37.364Z,24.15
2022-08-17T15:03:04.467Z,24.23
2022-08-17T15:05:35.125Z,24.47
2022-08-17T15:08:03.236Z,24.53
2022-08-17T15:10:30.910Z,24.45
2022-08-17T15:12:58.553Z,24.21
2022-08-17T15:15:26.034Z,24.22
2022-08-17T15:17:53.055Z,23.61
2022-08-17T15:20:24.020Z,24.21
2022-08-17T15:22:55.430Z,24.25
2022-08-17T15:25:24.413Z,24.20
2022-08-17T15:27:51.669Z,24.33
2022-08-17T15:30:18.837Z,24.00
2022-08-17T15:32:51.060Z,24.18
2022-08-17T15:35:27.213Z,24.15
2022-08-17T15:38:06.252Z,24.03
2022-08-17T15:40:36.780Z,23.99
2022-08-17T15:43:11.069Z,24.09
2022-08-17T15:45:38.041Z,24.01
2022-08-17T15:48:05.005Z,23.96
2022-08-17T15:50:31.974Z,23.97
2022-08-17T15:53:00.809Z,24.05
2022-08-17T15:55:30.058Z,24.03
2022-08-17T15:57:57.115Z,24.03
2022-08-17T16:00:24.271Z,23.91
2022-08-17T16:03:46.395Z,23.93
2022-08-17T16:05:38.178Z,23.99
2022-08-17T16:08:07.764Z,23.89
2022-08-17T16:10:35.623Z,24.00
2022-08-17T16:13:04.401Z,23.96
2022-08-17T16:15:31.911Z,23.76
2022-08-17T16:17:59.252Z,23.52
2022-08-17T16:20:26.415Z,23.71
2022-08-17T16:22:54.832Z,24.00
2022-08-17T16:25:50.414Z,23.93
2022-08-17T16:28:17.006Z,23.83
2022-08-17T16:30:43.951Z,23.67
2022-08-17T16:33:12.050Z,23.84
2022-08-17T16:35:39.067Z,23.83
2022-08-17T16:38:07.026Z,23.91
2022-08-17T16:40:35.970Z,23.88
2022-08-17T16:43:03.346Z,23.89
2022-08-17T16:45:36.787Z,23.75
2022-08-17T16:48:04.509Z,23.81
2022-08-17T16:50:32.885Z,23.83
2022-08-17T16:53:10.873Z,23.82
2022-08-17T16:55:38.376Z,23.88
2022-08-17T16:58:06.526Z,23.62
2022-08-17T17:00:34.382Z,23.47
2022-08-17T17:03:19.726Z,23.77
2022-08-17T17:06:01.727Z,23.78
2022-08-17T17:08:38.411Z,23.73
2022-08-17T17:11:37.343Z,23.73
2022-08-17T17:14:09.549Z,23.19
2022-08-17T17:16:55.872Z,23.68
2022-08-17T17:19:35.630Z,23.87
2022-08-17T17:22:07.936Z,23.87
2022-08-17T17:25:01.528Z,23.74
2022-08-17T17:28:06.668Z,23.22
2022-08-17T17:30:45.958Z,23.67
2022-08-17T17:33:34.734Z,23.39
2022-08-17T17:36:07.112Z,23.72
2022-08-17T17:39:06.807Z,23.59
2022-08-17T17:41:37.043Z,23.58
2022-08-17T17:44:11.981Z,23.06
2022-08-17T17:46:42.266Z,23.63
2022-08-17T17:49:10.749Z,23.47
2022-08-17T17:52:06.484Z,23.61
2022-08-17T17:55:27.118Z,23.46
2022-08-17T17:58:32.228Z,23.49
2022-08-17T18:01:24.378Z,23.47
2022-08-17T18:04:18.919Z,23.28
2022-08-17T18:07:02.339Z,23.39
2022-08-17T18:09:41.227Z,23.44
2022-08-17T18:12:35.249Z,23.16
2022-08-17T18:15:21.510Z,23.46
2022-08-17T18:18:40.249Z,23.19
2022-08-17T18:21:19.074Z,23.35
2022-08-17T18:24:07.140Z,23.26
2022-08-17T18:26:39.587Z,23.13
2022-08-17T18:29:40.606Z,22.99
2022-08-17T18:32:19.273Z,23.04
2022-08-17T18:34:49.042Z,23.00
2022-08-17T18:37:37.181Z,23.00
2022-08-17T18:40:21.819Z,22.97
2022-08-17T18:43:00.885Z,22.93
2022-08-17T18:45:40.908Z,22.96
2022-08-17T18:48:18.433Z,22.66
2022-08-17T18:50:45.474Z,22.55
2022-08-17T18:53:37.728Z,22.89
2022-08-17T18:56:16.425Z,22.93
2022-08-17T18:58:50.475Z,22.84
2022-08-17T19:01:21.412Z,22.91
2022-08-17T19:04:34.668Z,22.48
2022-08-17T19:07:07.494Z,22.89
2022-08-17T19:09:38.635Z,22.65
2022-08-17T19:12:10.361Z,22.80
2022-08-17T19:14:37.169Z,22.68
2022-08-17T19:17:18.718Z,22.52
2022-08-17T19:20:44.799Z,22.44
2022-08-17T19:23:39.352Z,22.47
2022-08-17T19:26:53.637Z,22.08
2022-08-17T19:29:22.121Z,22.28
2022-08-17T19:31:49.586Z,22.32
2022-08-17T19:34:33.387Z,22.23
2022-08-17T19:37:09.935Z,21.98
2022-08-17T19:39:59.629Z,21.71
2022-08-17T19:42:47.456Z,22.13
2022-08-17T19:45:32.981Z,22.15
2022-08-17T19:48:16.793Z,22.13
2022-08-17T19:50:47.385Z,22.05
2022-08-17T19:54:01.510Z,22.01
2022-08-17T19:56:44.923Z,21.85
2022-08-17T19:59:49.555Z,21.86
2022-08-17T20:02:48.684Z,21.76
2022-08-17T20:05:18.265Z,21.70
2022-08-17T20:07:53.891Z,21.67
2022-08-17T20:10:29.132Z,21.57
2022-08-17T20:13:01.829Z,21.20
2022-08-17T20:15:31.043Z,21.45
2022-08-17T20:18:01.263Z,21.33
2022-08-17T20:20:37.098Z,21.42
2022-08-17T20:23:09.988Z,21.42
2022-08-17T20:25:48.320Z,21.34
2022-08-17T20:28:15.240Z,21.32
2022-08-17T20:30:43.792Z,21.11
2022-08-17T20:33:29.967Z,21.09
2022-08-17T20:36:03.696Z,21.21
2022-08-17T20:38:46.259Z,20.59
2022-08-17T20:41:22.317Z,21.22
2022-08-17T20:43:55.796Z,21.18
2022-08-17T20:46:38.203Z,21.17
2022-08-17T20:49:11.200Z,21.12
2022-08-17T20:52:00.557Z,21.05
2022-08-17T20:54:50.815Z,20.98
2022-08-17T20:57:32.850Z,20.93
2022-08-17T21:00:14.388Z,20.91
2022-08-17T21:02:49.797Z,20.81
2022-08-17T21:05:34.321Z,20.48
2022-08-17T21:08:16.122Z,20.73
2022-08-17T21:10:46.108Z,20.34
2022-08-17T21:13:14.042Z,20.70
2022-08-17T21:15:42.497Z,20.63
2022-08-17T21:18:18.711Z,20.50
2022-08-17T21:21:00.404Z,20.40
2022-08-17T21:23:53.256Z,20.08
2022-08-17T21:26:50.328Z,20.35
2022-08-17T21:29:31.423Z,20.21
2022-08-17T21:32:00.670Z,20.33
2022-08-17T21:34:44.595Z,20.30
2022-08-17T21:37:21.041Z,20.27
2022-08-17T21:40:01.653Z,20.28
2022-08-17T21:42:32.236Z,20.09
2022-08-17T21:45:20.062Z,20.04
2022-08-17T21:48:11.616Z,20.30
2022-08-17T21:50:41.615Z,20.38
2022-08-17T21:53:12.267Z,20.31
2022-08-17T21:55:39.336Z,19.86
2022-08-17T21:58:28.280Z,20.12
2022-08-17T22:01:20.277Z,20.47
2022-08-17T22:04:00.309Z,20.34
2022-08-17T22:06:38.293Z,20.43
2022-08-17T22:09:43.351Z,20.61
2022-08-17T22:12:15.516Z,20.56
2022-08-17T22:14:52.960Z,20.72
2022-08-17T22:17:30.107Z,20.80
2022-08-17T22:20:17.067Z,21.21
2022-08-17T22:23:05.340Z,21.28
2022-08-17T22:26:00.344Z,21.15
2022-08-17T22:28:47.594Z,21.21
2022-08-17T22:31:17.642Z,21.32
2022-08-17T22:34:04.620Z,21.27
2022-08-17T22:36:33.829Z,21.24
2022-08-17T22:39:22.445Z,21.18
2022-08-17T22:42:01.000Z,20.94
2022-08-17T22:44:36.639Z,20.67
2022-08-17T22:47:15.191Z,21.36
2022-08-17T22:49:53.790Z,21.28
2022-08-17T22:53:01.583Z,21.43
2022-08-17T22:55:49.929Z,21.14
2022-08-17T22:59:02.002Z,21.44
2022-08-17T23:01:34.941Z,21.38
2022-08-17T23:04:07.278Z,21.27
2022-08-17T23:06:36.647Z,21.06
2022-08-17T23:09:06.710Z,21.34
2022-08-17T23:11:49.863Z,21.27
2022-08-17T23:14:20.267Z,21.38
2022-08-17T23:16:47.584Z,21.38
2022-08-17T23:19:17.863Z,21.49
2022-08-17T23:21:45.302Z,21.48
2022-08-17T23:24:21.277Z,21.17
2022-08-17T23:26:48.094Z,21.46
2022-08-17T23:29:15.030Z,21.31
2022-08-17T23:31:42.105Z,21.41
2022-08-17T23:34:12.787Z,21.34
2022-08-17T23:36:39.659Z,21.17
2022-08-17T23:39:07.450Z,21.45
2022-08-17T23:41:38.771Z,21.28
2022-08-17T23:44:06.622Z,20.85
2022-08-17T23:46:34.845Z,21.17
2022-08-17T23:49:01.961Z,21.41
2022-08-17T23:51:34.794Z,21.55
2022-08-17T23:54:12.743Z,21.53
2022-08-17T23:56:46.750Z,21.34
2022-08-17T23:59:15.644Z,21.40
